createdAt,value
2023-06-19T00:00:07.477Z,53.1480
2023-06-19T00:00:18.523Z,53.1270
2023-06-19T00:00:29.601Z,53.0900
2023-06-19T00:00:40.646Z,53.0520
2023-06-19T00:00:51.685Z,53.0260
2023-06-19T00:01:02.833Z,52.9950
2023-06-19T00:01:14.028Z,53.0200
2023-06-19T00:01:25.088Z,53.0460
2023-06-19T00:01:36.199Z,53.0260
2023-06-19T00:01:47.334Z,53.0670
2023-06-19T00:01:58.446Z,53.1250
2023-06-19T00:02:09.555Z,53.1310
2023-06-19T00:02:20.663Z,53.1370
2023-06-19T00:02:31.792Z,53.1620
2023-06-19T00:02:42.873Z,53.1620
2023-06-19T00:02:54.005Z,53.1370
2023-06-19T00:03:05.190Z,53.1250
2023-06-19T00:03:16.423Z,53.0920
2023-06-19T00:03:27.672Z,53.1120
2023-06-19T00:03:38.781Z,53.1120
2023-06-19T00:03:49.909Z,53.0850
2023-06-19T00:04:01.117Z,53.0730
2023-06-19T00:04:12.385Z,53.0730
2023-06-19T00:04:23.540Z,53.0670
2023-06-19T00:04:34.627Z,53.0730
2023-06-19T00:04:45.676Z,53.0610
2023-06-19T00:04:56.743Z,53.0230
2023-06-19T00:05:07.950Z,53.0460
2023-06-19T00:05:19.147Z,53.0520
2023-06-19T00:05:30.374Z,53.0380
2023-06-19T00:05:41.424Z,53.1080
2023-06-19T00:05:52.482Z,53.1080
2023-06-19T00:06:03.635Z,53.1210
2023-06-19T00:06:14.688Z,53.0960
2023-06-19T00:06:25.771Z,53.0830
2023-06-19T00:06:36.914Z,53.0520
2023-06-19T00:06:47.961Z,53.0320
2023-06-19T00:06:58.988Z,53.0380
2023-06-19T00:07:10.203Z,53.0380
2023-06-19T00:07:21.394Z,53.0590
2023-06-19T00:07:32.431Z,53.0830
2023-06-19T00:07:43.517Z,53.0590
2023-06-19T00:07:54.547Z,53.0320
2023-06-19T00:08:05.644Z,53.0520
2023-06-19T00:08:16.777Z,53.0320
2023-06-19T00:08:27.958Z,53.0070
2023-06-19T00:08:39.169Z,53.0200
2023-06-19T00:08:50.361Z,53.0650
2023-06-19T00:09:01.425Z,53.0710
2023-06-19T00:09:12.477Z,53.0590
2023-06-19T00:09:23.631Z,53.0590
2023-06-19T00:09:34.890Z,53.0770
2023-06-19T00:09:46.055Z,53.0770
2023-06-19T00:09:57.235Z,53.0710
2023-06-19T00:10:08.292Z,53.0710
2023-06-19T00:10:19.370Z,53.0590
2023-06-19T00:10:30.527Z,53.0770
2023-06-19T00:10:41.723Z,53.0900
2023-06-19T00:10:52.907Z,53.0590
2023-06-19T00:11:03.952Z,53.0130
2023-06-19T00:11:15.025Z,53.0650
2023-06-19T00:11:26.243Z,53.0460
2023-06-19T00:11:37.401Z,53.0200
2023-06-19T00:11:48.602Z,53.0460
2023-06-19T00:11:59.807Z,53.0900
2023-06-19T00:12:10.990Z,53.0830
2023-06-19T00:12:22.194Z,53.0900
2023-06-19T00:12:33.391Z,53.0830
2023-06-19T00:12:44.448Z,53.0710
2023-06-19T00:12:55.512Z,53.0200
2023-06-19T00:13:06.682Z,53.0080
2023-06-19T00:13:17.723Z,53.0200
2023-06-19T00:13:28.802Z,53.0140
2023-06-19T00:13:39.980Z,52.9880
2023-06-19T00:13:51.182Z,53.0200
2023-06-19T00:14:02.349Z,53.0590
2023-06-19T00:14:13.403Z,53.0960
2023-06-19T00:14:24.506Z,53.0960
2023-06-19T00:14:35.672Z,53.1140
2023-06-19T00:14:46.833Z,53.1140
2023-06-19T00:14:58.045Z,53.1330
2023-06-19T00:15:09.233Z,53.1480
2023-06-19T00:15:20.433Z,53.1140
2023-06-19T00:15:31.628Z,53.0960
2023-06-19T00:15:42.839Z,53.0710
2023-06-19T00:15:54.052Z,53.0710
2023-06-19T00:16:05.241Z,53.1330
2023-06-19T00:16:16.395Z,53.1480
2023-06-19T00:16:27.515Z,53.1140
2023-06-19T00:16:38.693Z,53.0830
2023-06-19T00:16:49.869Z,53.1140
2023-06-19T00:17:00.920Z,53.1540
2023-06-19T00:17:12.139Z,53.1480
2023-06-19T00:17:23.350Z,53.1270
2023-06-19T00:17:34.451Z,53.1330
2023-06-19T00:17:45.485Z,53.1180
2023-06-19T00:17:56.642Z,53.1000
2023-06-19T00:18:07.819Z,53.1310
2023-06-19T00:18:18.911Z,53.1140
2023-06-19T00:18:29.986Z,53.0960
2023-06-19T00:18:41.590Z,53.1270
2023-06-19T00:18:53.274Z,53.2220
2023-06-19T00:19:04.404Z,53.1810
2023-06-19T00:19:15.638Z,53.1310
2023-06-19T00:19:26.827Z,53.1250
2023-06-19T00:19:38.068Z,53.1180
2023-06-19T00:19:49.227Z,53.1370
2023-06-19T00:20:00.297Z,53.1120
2023-06-19T00:20:11.337Z,53.1080
2023-06-19T00:20:22.562Z,53.1140
2023-06-19T00:20:34.061Z,53.1540
2023-06-19T00:20:45.234Z,53.1080
2023-06-19T00:20:56.433Z,53.1210
2023-06-19T00:21:07.641Z,53.1020
2023-06-19T00:21:18.842Z,53.1540
2023-06-19T00:21:29.864Z,53.1140
2023-06-19T00:21:40.914Z,53.0960
2023-06-19T00:21:52.113Z,53.0770
2023-06-19T00:22:03.165Z,53.1080
2023-06-19T00:22:14.209Z,53.0590
2023-06-19T00:22:25.415Z,53.0130
2023-06-19T00:22:36.449Z,53.0520
2023-06-19T00:22:47.597Z,53.0830
2023-06-19T00:22:58.681Z,53.0650
2023-06-19T00:23:09.747Z,53.0520
2023-06-19T00:23:20.824Z,53.0520
2023-06-19T00:23:31.957Z,53.0200
2023-06-19T00:23:43.001Z,53.0070
2023-06-19T00:23:54.153Z,52.9760
2023-06-19T00:24:05.383Z,53.0010
2023-06-19T00:24:16.482Z,52.9820
2023-06-19T00:24:27.589Z,53.0320
2023-06-19T00:24:38.800Z,53.0380
2023-06-19T00:24:50.074Z,53.0710
2023-06-19T00:25:01.222Z,53.0590
2023-06-19T00:25:12.436Z,53.0320
2023-06-19T00:25:23.636Z,53.0590
2023-06-19T00:25:34.874Z,53.0710
2023-06-19T00:25:46.045Z,53.0650
2023-06-19T00:25:57.228Z,53.0520
2023-06-19T00:26:08.425Z,53.0770
2023-06-19T00:26:19.637Z,53.0710
2023-06-19T00:26:30.834Z,53.0590
2023-06-19T00:26:42.083Z,53.0520
2023-06-19T00:26:53.223Z,53.0200
2023-06-19T00:27:04.427Z,53.0380
2023-06-19T00:27:15.524Z,53.0520
2023-06-19T00:27:26.564Z,53.0380
2023-06-19T00:27:37.713Z,53.0520
2023-06-19T00:27:48.811Z,53.0380
2023-06-19T00:27:59.913Z,53.0070
2023-06-19T00:28:10.994Z,52.9950
2023-06-19T00:28:22.033Z,52.9820
2023-06-19T00:28:33.072Z,53.0010
2023-06-19T00:28:44.266Z,53.0260
2023-06-19T00:28:55.332Z,53.0710
2023-06-19T00:29:06.411Z,53.0710
2023-06-19T00:29:17.566Z,53.0650
2023-06-19T00:29:28.753Z,53.0520
2023-06-19T00:29:39.991Z,53.0650
2023-06-19T00:29:51.156Z,53.0380
2023-06-19T00:30:02.232Z,53.0200
2023-06-19T00:30:13.294Z,53.0130
2023-06-19T00:30:24.702Z,53.0320
2023-06-19T00:30:36.310Z,53.0590
2023-06-19T00:30:47.486Z,52.9950
2023-06-19T00:30:58.570Z,52.9700
2023-06-19T00:31:09.632Z,52.9640
2023-06-19T00:31:20.678Z,53.0130
2023-06-19T00:31:31.754Z,52.9820
2023-06-19T00:31:42.851Z,52.9700
2023-06-19T00:31:54.036Z,52.9570
2023-06-19T00:32:05.056Z,52.9430
2023-06-19T00:32:16.118Z,52.9430
2023-06-19T00:32:27.330Z,52.9430
2023-06-19T00:32:38.531Z,52.9640
2023-06-19T00:32:49.782Z,52.9820
2023-06-19T00:33:00.935Z,52.9430
2023-06-19T00:33:12.032Z,52.9570
2023-06-19T00:33:23.132Z,52.9640
2023-06-19T00:33:34.193Z,52.9700
2023-06-19T00:33:45.234Z,52.9570
2023-06-19T00:33:56.278Z,52.9880
2023-06-19T00:34:07.486Z,53.0010
2023-06-19T00:34:18.534Z,53.0080
2023-06-19T00:34:29.632Z,53.0200
2023-06-19T00:34:40.679Z,53.0010
2023-06-19T00:34:51.752Z,52.9880
2023-06-19T00:35:02.889Z,52.9760
2023-06-19T00:35:13.947Z,52.9760
2023-06-19T00:35:25.046Z,52.9700
2023-06-19T00:35:36.119Z,52.9370
2023-06-19T00:35:47.195Z,52.9190
2023-06-19T00:35:58.246Z,52.9190
2023-06-19T00:36:09.398Z,52.8940
2023-06-19T00:36:20.473Z,52.9370
2023-06-19T00:36:31.532Z,52.9580
2023-06-19T00:36:42.722Z,52.9310
2023-06-19T00:36:53.752Z,52.9370
2023-06-19T00:37:04.819Z,52.9370
2023-06-19T00:37:15.947Z,52.9190
2023-06-19T00:37:27.029Z,52.9250
2023-06-19T00:37:38.102Z,52.9250
2023-06-19T00:37:49.252Z,52.9250
2023-06-19T00:38:00.305Z,52.9370
2023-06-19T00:38:11.371Z,52.9310
2023-06-19T00:38:22.532Z,52.9000
2023-06-19T00:38:33.591Z,52.9000
2023-06-19T00:38:44.644Z,52.8810
2023-06-19T00:38:55.796Z,52.9060
2023-06-19T00:39:06.846Z,52.9190
2023-06-19T00:39:17.899Z,52.9460
2023-06-19T00:39:29.070Z,52.9370
2023-06-19T00:39:41.004Z,52.9520
2023-06-19T00:39:53.728Z,53.0720
2023-06-19T00:40:04.920Z,53.0130
2023-06-19T00:40:15.954Z,52.9700
2023-06-19T00:40:27.003Z,52.9580
2023-06-19T00:40:38.193Z,52.9370
2023-06-19T00:40:49.389Z,52.9250
2023-06-19T00:41:00.610Z,52.9130
2023-06-19T00:41:11.785Z,52.9310
2023-06-19T00:41:22.991Z,52.9570
2023-06-19T00:41:34.186Z,52.9490
2023-06-19T00:41:45.459Z,52.9430
2023-06-19T00:41:56.599Z,52.9240
2023-06-19T00:42:07.802Z,52.9060
2023-06-19T00:42:18.856Z,52.9240
2023-06-19T00:42:29.914Z,52.9120
2023-06-19T00:42:41.072Z,52.9240
2023-06-19T00:42:52.147Z,52.9250
2023-06-19T00:43:03.208Z,52.9000
2023-06-19T00:43:14.358Z,52.8940
2023-06-19T00:43:25.401Z,52.9130
2023-06-19T00:43:36.439Z,52.8690
2023-06-19T00:43:47.640Z,52.8750
2023-06-19T00:43:58.849Z,52.8630
2023-06-19T00:44:09.965Z,52.8630
2023-06-19T00:44:21.023Z,52.8630
2023-06-19T00:44:32.084Z,52.8570
2023-06-19T00:44:43.322Z,52.8690
2023-06-19T00:44:54.391Z,52.8570
2023-06-19T00:45:05.439Z,52.8630
2023-06-19T00:45:16.586Z,52.8230
2023-06-19T00:45:27.789Z,52.8230
2023-06-19T00:45:38.901Z,52.8360
2023-06-19T00:45:49.979Z,52.8420
2023-06-19T00:46:01.111Z,52.8500
2023-06-19T00:46:12.333Z,52.8420
2023-06-19T00:46:23.546Z,52.8360
2023-06-19T00:46:34.672Z,52.8170
2023-06-19T00:46:45.933Z,52.7990
2023-06-19T00:46:59.603Z,52.8230
2023-06-19T00:47:11.858Z,53.0080
2023-06-19T00:47:23.021Z,52.8750
2023-06-19T00:47:34.206Z,52.8360
2023-06-19T00:47:45.275Z,52.8230
2023-06-19T00:47:56.372Z,52.8110
2023-06-19T00:48:07.504Z,52.7990
2023-06-19T00:48:18.579Z,52.7800
2023-06-19T00:48:29.652Z,52.7470
2023-06-19T00:48:40.682Z,52.7470
2023-06-19T00:48:51.751Z,52.7470
2023-06-19T00:49:02.830Z,52.7680
2023-06-19T00:49:13.873Z,52.7680
2023-06-19T00:49:24.972Z,52.7470
2023-06-19T00:49:36.017Z,52.7530
2023-06-19T00:49:47.096Z,52.7530
2023-06-19T00:49:58.145Z,52.7610
2023-06-19T00:50:09.227Z,52.7470
2023-06-19T00:50:20.267Z,52.7290
2023-06-19T00:50:31.450Z,52.7410
2023-06-19T00:50:42.582Z,52.7530
2023-06-19T00:50:53.654Z,52.7160
2023-06-19T00:51:04.699Z,52.7290
2023-06-19T00:51:15.813Z,52.7220
2023-06-19T00:51:26.854Z,52.7100
2023-06-19T00:51:37.938Z,52.6910
2023-06-19T00:51:49.019Z,52.7350
2023-06-19T00:52:00.099Z,52.7680
2023-06-19T00:52:11.125Z,52.7800
2023-06-19T00:52:22.188Z,52.7530
2023-06-19T00:52:33.243Z,52.7530
2023-06-19T00:52:44.286Z,52.7470
2023-06-19T00:52:55.381Z,52.7350
2023-06-19T00:53:06.457Z,52.7350
2023-06-19T00:53:17.540Z,52.7410
2023-06-19T00:53:28.613Z,52.7290
2023-06-19T00:53:39.650Z,52.7100
2023-06-19T00:53:50.737Z,52.7040
2023-06-19T00:54:01.835Z,52.6970
2023-06-19T00:54:12.887Z,52.6730
2023-06-19T00:54:23.952Z,52.6730
2023-06-19T00:54:35.026Z,52.6580
2023-06-19T00:54:46.074Z,52.6330
2023-06-19T00:54:57.167Z,52.6210
2023-06-19T00:55:08.202Z,52.6210
2023-06-19T00:55:19.280Z,52.6270
2023-06-19T00:55:30.351Z,52.6270
2023-06-19T00:55:41.421Z,52.5960
2023-06-19T00:55:52.491Z,52.6020
2023-06-19T00:56:03.550Z,52.5900
2023-06-19T00:56:14.580Z,52.5780
2023-06-19T00:56:25.689Z,52.5450
2023-06-19T00:56:36.779Z,52.5450
2023-06-19T00:56:47.869Z,52.5570
2023-06-19T00:56:58.960Z,52.5630
2023-06-19T00:57:10.026Z,52.5630
2023-06-19T00:57:21.107Z,52.5510
2023-06-19T00:57:32.157Z,52.5380
2023-06-19T00:57:43.215Z,52.5570
2023-06-19T00:57:54.281Z,52.5450
2023-06-19T00:58:05.347Z,52.5320
2023-06-19T00:58:16.473Z,52.5380
2023-06-19T00:58:27.539Z,52.5200
2023-06-19T00:58:38.652Z,52.5320
2023-06-19T00:58:49.700Z,52.5320
2023-06-19T00:59:00.776Z,52.5320
2023-06-19T00:59:11.819Z,52.5070
2023-06-19T00:59:22.909Z,52.5070
2023-06-19T00:59:33.964Z,52.5010
2023-06-19T00:59:45.000Z,52.5070
2023-06-19T00:59:56.054Z,52.4890
2023-06-19T01:00:07.089Z,52.4830
2023-06-19T01:00:18.154Z,52.4830
2023-06-19T01:00:29.233Z,52.4830
2023-06-19T01:00:40.285Z,52.4680
2023-06-19T01:01:03.940Z,52.4620
2023-06-19T01:01:09.842Z,52.7410
2023-06-19T01:01:21.358Z,52.7090
2023-06-19T01:01:32.427Z,52.5750
2023-06-19T01:01:43.522Z,52.5010
2023-06-19T01:01:54.609Z,52.4740
2023-06-19T01:02:05.782Z,52.4430
2023-06-19T01:02:17.067Z,52.4370
2023-06-19T01:02:28.249Z,52.4190
2023-06-19T01:02:39.351Z,52.4000
2023-06-19T01:02:50.768Z,52.3730
2023-06-19T01:03:02.261Z,52.3940
2023-06-19T01:03:13.863Z,52.3860
2023-06-19T01:03:26.155Z,52.4310
2023-06-19T01:03:37.687Z,52.3670
2023-06-19T01:03:49.512Z,52.3860
2023-06-19T01:04:01.061Z,52.3790
2023-06-19T01:04:12.258Z,52.3490
2023-06-19T01:04:23.349Z,52.3120
2023-06-19T01:04:34.464Z,52.3050
2023-06-19T01:04:45.558Z,52.3240
2023-06-19T01:04:56.680Z,52.3180
2023-06-19T01:05:07.746Z,52.2910
2023-06-19T01:05:18.851Z,52.2720
2023-06-19T01:05:29.884Z,52.2410
2023-06-19T01:05:40.949Z,52.2290
2023-06-19T01:05:52.018Z,52.2290
2023-06-19T01:06:03.076Z,52.2290
2023-06-19T01:06:14.176Z,52.2230
2023-06-19T01:06:25.244Z,52.2480
2023-06-19T01:06:36.314Z,52.2230
2023-06-19T01:06:47.381Z,52.2020
2023-06-19T01:06:58.458Z,52.2100
2023-06-19T01:07:09.541Z,52.2020
2023-06-19T01:07:20.657Z,52.2020
2023-06-19T01:07:31.741Z,52.1900
2023-06-19T01:07:42.850Z,52.1960
2023-06-19T01:07:53.948Z,52.1900
2023-06-19T01:08:05.025Z,52.1710
2023-06-19T01:08:16.109Z,52.1590
2023-06-19T01:08:27.166Z,52.1280
2023-06-19T01:08:38.228Z,52.1280
2023-06-19T01:08:49.316Z,52.1070
2023-06-19T01:09:00.371Z,52.1160
2023-06-19T01:09:11.439Z,52.0950
2023-06-19T01:09:22.513Z,52.0950
2023-06-19T01:09:33.585Z,52.0770
2023-06-19T01:09:44.623Z,52.0520
2023-06-19T01:09:55.678Z,52.0390
2023-06-19T01:10:06.762Z,52.0460
2023-06-19T01:10:17.874Z,52.0580
2023-06-19T01:10:28.923Z,52.0700
2023-06-19T01:10:39.984Z,52.0700
2023-06-19T01:10:51.046Z,52.0580
2023-06-19T01:11:06.768Z,52.0390
2023-06-19T01:11:26.117Z,52.3050
2023-06-19T01:11:36.022Z,52.3910
2023-06-19T01:11:47.078Z,52.2410
2023-06-19T01:11:58.191Z,52.0940
2023-06-19T01:12:09.263Z,52.0460
2023-06-19T01:12:20.295Z,52.0130
2023-06-19T01:12:31.362Z,51.9820
2023-06-19T01:12:42.431Z,51.9630
2023-06-19T01:12:53.536Z,51.9690
2023-06-19T01:13:04.619Z,51.9690
2023-06-19T01:13:15.686Z,51.9380
2023-06-19T01:13:26.737Z,51.9320
2023-06-19T01:13:37.799Z,51.9240
2023-06-19T01:13:48.854Z,51.9380
2023-06-19T01:13:59.933Z,51.9060
2023-06-19T01:14:11.006Z,51.9120
2023-06-19T01:14:22.105Z,51.8930
2023-06-19T01:14:33.172Z,51.8870
2023-06-19T01:14:44.206Z,51.8560
2023-06-19T01:14:55.252Z,51.8690
2023-06-19T01:15:06.310Z,51.8630
2023-06-19T01:15:17.422Z,51.8440
2023-06-19T01:15:28.478Z,51.8360
2023-06-19T01:15:39.543Z,51.8300
2023-06-19T01:15:50.561Z,51.8110
2023-06-19T01:16:01.630Z,51.8360
2023-06-19T01:16:12.701Z,51.8300
2023-06-19T01:16:23.791Z,51.8230
2023-06-19T01:16:34.910Z,51.8090
2023-06-19T01:16:45.979Z,51.7860
2023-06-19T01:16:57.076Z,51.7620
2023-06-19T01:17:08.238Z,51.7680
2023-06-19T01:17:19.382Z,51.7740
2023-06-19T01:17:30.512Z,51.7560
2023-06-19T01:17:41.621Z,51.7490
2023-06-19T01:17:52.786Z,51.7490
2023-06-19T01:18:03.961Z,51.7170
2023-06-19T01:18:15.023Z,51.7170
2023-06-19T01:18:26.099Z,51.7290
2023-06-19T01:18:37.179Z,51.7290
2023-06-19T01:18:48.265Z,51.7230
2023-06-19T01:18:59.335Z,51.6880
2023-06-19T01:19:10.454Z,51.6820
2023-06-19T01:19:21.500Z,51.6820
2023-06-19T01:19:32.561Z,51.6510
2023-06-19T01:19:43.686Z,51.6670
2023-06-19T01:19:54.743Z,51.6790
2023-06-19T01:20:05.789Z,51.6530
2023-06-19T01:20:16.869Z,51.6400
2023-06-19T01:20:27.922Z,51.6400
2023-06-19T01:20:39.002Z,51.6670
2023-06-19T01:20:50.075Z,51.6970
2023-06-19T01:21:01.136Z,51.6850
2023-06-19T01:21:12.187Z,51.6970
2023-06-19T01:21:23.251Z,51.6970
2023-06-19T01:21:34.325Z,51.7100
2023-06-19T01:21:45.378Z,51.6970
2023-06-19T01:21:56.450Z,51.6850
2023-06-19T01:22:07.523Z,51.6580
2023-06-19T01:22:18.564Z,51.6340
2023-06-19T01:22:29.638Z,51.6280
2023-06-19T01:22:40.697Z,51.6150
2023-06-19T01:22:51.750Z,51.6210
2023-06-19T01:23:02.827Z,51.6100
2023-06-19T01:23:13.889Z,51.6100
2023-06-19T01:23:24.961Z,51.6160
2023-06-19T01:23:36.024Z,51.5850
2023-06-19T01:23:47.099Z,51.5790
2023-06-19T01:23:58.166Z,51.5660
2023-06-19T01:24:09.243Z,51.5520
2023-06-19T01:24:20.416Z,51.5400
2023-06-19T01:24:31.607Z,51.5340
2023-06-19T01:24:42.719Z,51.5400
2023-06-19T01:24:53.866Z,51.5340
2023-06-19T01:25:04.908Z,51.5270
2023-06-19T01:25:16.009Z,51.5090
2023-06-19T01:25:27.067Z,51.5270
2023-06-19T01:25:38.148Z,51.5090
2023-06-19T01:25:49.223Z,51.4900
2023-06-19T01:26:00.288Z,51.4840
2023-06-19T01:26:11.327Z,51.4970
2023-06-19T01:26:22.401Z,51.4700
2023-06-19T01:26:33.507Z,51.4580
2023-06-19T01:26:44.549Z,51.4450
2023-06-19T01:26:55.623Z,51.4450
2023-06-19T01:27:06.667Z,51.4580
2023-06-19T01:27:17.758Z,51.4580
2023-06-19T01:27:28.804Z,51.4520
2023-06-19T01:27:39.829Z,51.4450
2023-06-19T01:27:50.921Z,51.4520
2023-06-19T01:28:01.990Z,51.4450
2023-06-19T01:28:13.089Z,51.4270
2023-06-19T01:28:24.114Z,51.4020
2023-06-19T01:28:35.179Z,51.3960
2023-06-19T01:28:46.243Z,51.4020
2023-06-19T01:28:57.327Z,51.3960
2023-06-19T01:29:08.454Z,51.3900
2023-06-19T01:29:19.515Z,51.3700
2023-06-19T01:29:30.570Z,51.3570
2023-06-19T01:29:41.653Z,51.3570
2023-06-19T01:29:52.695Z,51.3570
2023-06-19T01:30:03.815Z,51.3450
2023-06-19T01:30:14.942Z,51.3390
2023-06-19T01:30:26.228Z,51.3450
2023-06-19T01:30:37.489Z,51.3700
2023-06-19T01:30:48.565Z,51.3510
2023-06-19T01:30:59.639Z,51.3330
2023-06-19T01:31:10.684Z,51.3450
2023-06-19T01:31:21.758Z,51.3140
2023-06-19T01:31:32.844Z,51.3140
2023-06-19T01:31:43.902Z,51.2960
2023-06-19T01:31:54.921Z,51.2960
2023-06-19T01:32:06.016Z,51.3020
2023-06-19T01:32:17.070Z,51.3140
2023-06-19T01:32:28.160Z,51.3080
2023-06-19T01:32:39.250Z,51.2960
2023-06-19T01:32:50.291Z,51.3140
2023-06-19T01:33:01.406Z,51.3080
2023-06-19T01:33:12.483Z,51.3080
2023-06-19T01:33:23.541Z,51.2960
2023-06-19T01:33:34.583Z,51.2870
2023-06-19T01:33:45.639Z,51.2750
2023-06-19T01:33:56.708Z,51.2630
2023-06-19T01:34:08.409Z,51.3080
2023-06-19T01:34:19.472Z,51.2750
2023-06-19T01:34:30.504Z,51.2440
2023-06-19T01:34:41.607Z,51.2190
2023-06-19T01:34:52.665Z,51.2380
2023-06-19T01:35:03.723Z,51.2260
2023-06-19T01:35:14.797Z,51.2140
2023-06-19T01:35:25.836Z,51.1870
2023-06-19T01:35:36.906Z,51.1990
2023-06-19T01:35:47.979Z,51.2080
2023-06-19T01:35:59.079Z,51.2080
2023-06-19T01:36:10.119Z,51.2080
2023-06-19T01:36:21.186Z,51.1990
2023-06-19T01:36:32.236Z,51.2080
2023-06-19T01:36:43.305Z,51.1990
2023-06-19T01:36:54.395Z,51.1930
2023-06-19T01:37:05.464Z,51.1930
2023-06-19T01:37:16.547Z,51.1870
2023-06-19T01:37:27.630Z,51.1810
2023-06-19T01:37:38.703Z,51.1740
2023-06-19T01:37:49.766Z,51.1740
2023-06-19T01:38:00.841Z,51.1870
2023-06-19T01:38:11.859Z,51.1870
2023-06-19T01:38:22.948Z,51.1740
2023-06-19T01:38:34.021Z,51.1800
2023-06-19T01:38:45.081Z,51.1930
2023-06-19T01:38:56.131Z,51.1930
2023-06-19T01:39:07.188Z,51.1800
2023-06-19T01:39:18.247Z,51.1870
2023-06-19T01:39:29.301Z,51.1870
2023-06-19T01:39:40.376Z,51.1800
2023-06-19T01:39:51.627Z,51.1680
2023-06-19T01:40:02.669Z,51.1870
2023-06-19T01:40:13.749Z,51.1800
2023-06-19T01:40:24.975Z,51.1740
2023-06-19T01:40:36.183Z,51.2130
2023-06-19T01:40:47.237Z,51.2090
2023-06-19T01:40:58.300Z,51.1970
2023-06-19T01:41:09.393Z,51.1930
2023-06-19T01:41:20.466Z,51.1870
2023-06-19T01:41:31.614Z,51.2050
2023-06-19T01:41:42.670Z,51.1870
2023-06-19T01:41:53.756Z,51.1930
2023-06-19T01:42:04.822Z,51.1740
2023-06-19T01:42:15.878Z,51.1680
2023-06-19T01:42:26.910Z,51.1680
2023-06-19T01:42:37.959Z,51.1800
2023-06-19T01:42:48.997Z,51.1870
2023-06-19T01:43:00.046Z,51.1740
2023-06-19T01:43:11.146Z,51.1740
2023-06-19T01:43:22.193Z,51.1740
2023-06-19T01:43:33.272Z,51.1560
2023-06-19T01:43:44.327Z,51.1680
2023-06-19T01:43:55.382Z,51.1370
2023-06-19T01:44:06.453Z,51.1500
2023-06-19T01:44:17.521Z,51.1440
2023-06-19T01:44:28.596Z,51.1560
2023-06-19T01:44:39.672Z,51.1500
2023-06-19T01:44:50.753Z,51.1500
2023-06-19T01:45:01.798Z,51.1370
2023-06-19T01:45:12.829Z,51.1170
2023-06-19T01:45:23.909Z,51.1370
2023-06-19T01:45:34.933Z,51.1250
2023-06-19T01:45:46.007Z,51.1380
2023-06-19T01:45:57.108Z,51.1320
2023-06-19T01:46:08.191Z,51.1320
2023-06-19T01:46:19.255Z,51.1320
2023-06-19T01:46:30.439Z,51.1050
2023-06-19T01:46:41.764Z,51.1500
2023-06-19T01:46:52.949Z,51.1370
2023-06-19T01:47:04.057Z,51.1370
2023-06-19T01:47:15.099Z,51.1170
2023-06-19T01:47:26.245Z,51.1310
2023-06-19T01:47:37.394Z,51.1310
2023-06-19T01:47:48.558Z,51.1370
2023-06-19T01:47:59.656Z,51.1370
2023-06-19T01:48:10.763Z,51.1370
2023-06-19T01:48:21.818Z,51.1440
2023-06-19T01:48:32.854Z,51.1370
2023-06-19T01:48:43.920Z,51.1370
2023-06-19T01:48:55.015Z,51.1620
2023-06-19T01:49:06.109Z,51.1680
2023-06-19T01:49:17.162Z,51.1560
2023-06-19T01:49:28.183Z,51.1560
2023-06-19T01:49:39.249Z,51.1500
2023-06-19T01:49:50.333Z,51.1440
2023-06-19T01:50:01.383Z,51.1320
2023-06-19T01:50:12.457Z,51.1050
2023-06-19T01:50:23.773Z,51.1050
2023-06-19T01:50:35.213Z,51.1380
2023-06-19T01:50:46.278Z,51.1440
2023-06-19T01:50:57.363Z,51.1440
2023-06-19T01:51:08.410Z,51.1380
2023-06-19T01:51:19.469Z,51.1320
2023-06-19T01:51:30.548Z,51.1190
2023-06-19T01:51:41.608Z,51.1190
2023-06-19T01:51:52.704Z,51.1190
2023-06-19T01:52:03.737Z,51.1130
2023-06-19T01:52:14.787Z,51.1250
2023-06-19T01:52:25.869Z,51.1440
2023-06-19T01:52:36.920Z,51.1440
2023-06-19T01:52:47.994Z,51.1320
2023-06-19T01:52:59.040Z,51.1380
2023-06-19T01:53:10.092Z,51.1440
2023-06-19T01:53:21.144Z,51.1440
2023-06-19T01:53:32.192Z,51.1560
2023-06-19T01:53:43.251Z,51.1380
2023-06-19T01:53:54.302Z,51.1380
2023-06-19T01:54:05.371Z,51.1810
2023-06-19T01:54:16.550Z,51.1810
2023-06-19T01:54:27.610Z,51.1990
2023-06-19T01:54:38.673Z,51.2200
2023-06-19T01:54:49.731Z,51.2140
2023-06-19T01:55:00.819Z,51.2380
2023-06-19T01:55:11.875Z,51.2380
2023-06-19T01:55:22.932Z,51.2500
2023-06-19T01:55:33.992Z,51.2750
2023-06-19T01:55:45.058Z,51.2810
2023-06-19T01:55:56.133Z,51.2690
2023-06-19T01:56:07.217Z,51.2690
2023-06-19T01:56:18.267Z,51.2750
2023-06-19T01:56:29.332Z,51.2810
2023-06-19T01:56:40.392Z,51.3320
2023-06-19T01:56:51.455Z,51.3630
2023-06-19T01:57:02.520Z,51.3760
2023-06-19T01:57:13.589Z,51.3750
2023-06-19T01:57:24.657Z,51.4080
2023-06-19T01:57:35.697Z,51.3810
2023-06-19T01:57:46.728Z,51.3750
2023-06-19T01:57:57.783Z,51.3870
2023-06-19T01:58:08.844Z,51.3950
2023-06-19T01:58:19.920Z,51.4270
2023-06-19T01:58:30.972Z,51.4390
2023-06-19T01:58:42.026Z,51.4330
2023-06-19T01:58:53.098Z,51.4390
2023-06-19T01:59:04.149Z,51.4570
2023-06-19T01:59:15.225Z,51.4900
2023-06-19T01:59:26.345Z,51.5270
2023-06-19T01:59:37.391Z,51.4900
2023-06-19T01:59:48.450Z,51.5150
2023-06-19T01:59:59.508Z,51.5520
2023-06-19T02:00:10.581Z,51.5450
2023-06-19T02:00:21.947Z,51.5700
2023-06-19T02:00:33.301Z,51.6280
2023-06-19T02:00:44.367Z,51.6210
2023-06-19T02:00:55.438Z,51.6030
2023-06-19T02:01:06.488Z,51.6340
2023-06-19T02:01:17.579Z,51.6280
2023-06-19T02:01:28.658Z,51.6090
2023-06-19T02:01:39.697Z,51.5840
2023-06-19T02:01:50.744Z,51.5970
2023-06-19T02:02:01.801Z,51.6730
2023-06-19T02:02:12.869Z,51.6910
2023-06-19T02:02:23.934Z,51.7220
2023-06-19T02:02:35.016Z,51.7410
2023-06-19T02:02:46.282Z,51.7410
2023-06-19T02:02:57.672Z,51.7920
2023-06-19T02:03:08.836Z,51.7800
2023-06-19T02:03:20.045Z,51.7610
2023-06-19T02:03:31.713Z,51.8040
2023-06-19T02:03:42.969Z,51.7860
2023-06-19T02:03:54.144Z,51.7800
2023-06-19T02:04:05.261Z,51.7670
2023-06-19T02:04:16.360Z,51.8350
2023-06-19T02:04:27.384Z,51.8870
2023-06-19T02:04:38.450Z,51.8990
2023-06-19T02:04:49.484Z,51.9050
2023-06-19T02:05:00.531Z,51.8930
2023-06-19T02:05:11.569Z,51.9110
2023-06-19T02:05:22.620Z,51.9170
2023-06-19T02:05:33.689Z,51.9440
2023-06-19T02:05:44.747Z,51.9500
2023-06-19T02:05:55.791Z,51.9750
2023-06-19T02:06:06.868Z,52.0570
2023-06-19T02:06:17.921Z,52.0700
2023-06-19T02:06:28.981Z,52.0630
2023-06-19T02:06:40.037Z,52.0820
2023-06-19T02:06:51.126Z,52.0820
2023-06-19T02:07:02.204Z,52.0700
2023-06-19T02:07:13.270Z,52.0630
2023-06-19T02:07:24.349Z,52.0630
2023-06-19T02:07:35.399Z,52.0820
2023-06-19T02:07:46.463Z,52.0940
2023-06-19T02:07:57.545Z,52.1070
2023-06-19T02:08:08.599Z,52.1130
2023-06-19T02:08:19.711Z,52.1070
2023-06-19T02:08:30.727Z,52.1190
2023-06-19T02:08:41.829Z,52.1270
2023-06-19T02:08:52.880Z,52.1190
2023-06-19T02:09:03.952Z,52.1400
2023-06-19T02:09:15.034Z,52.1400
2023-06-19T02:09:26.074Z,52.1710
2023-06-19T02:09:37.146Z,52.1770
2023-06-19T02:09:48.228Z,52.1960
2023-06-19T02:09:59.292Z,52.1830
2023-06-19T02:10:10.354Z,52.2140
2023-06-19T02:10:21.639Z,52.2660
2023-06-19T02:10:33.004Z,52.2720
2023-06-19T02:10:44.068Z,52.2360
2023-06-19T02:10:55.135Z,52.2820
2023-06-19T02:11:06.223Z,52.3000
2023-06-19T02:11:17.336Z,52.2940
2023-06-19T02:11:28.376Z,52.2960
2023-06-19T02:11:39.412Z,52.2900
2023-06-19T02:11:50.443Z,52.3020
2023-06-19T02:12:01.487Z,52.3020
2023-06-19T02:12:12.539Z,52.2960
2023-06-19T02:12:23.605Z,52.3170
2023-06-19T02:12:34.685Z,52.3170
2023-06-19T02:12:45.779Z,52.3540
2023-06-19T02:12:56.852Z,52.3730
2023-06-19T02:13:07.866Z,52.3730
2023-06-19T02:13:18.947Z,52.3730
2023-06-19T02:13:29.981Z,52.4300
2023-06-19T02:13:41.051Z,52.4550
2023-06-19T02:13:52.179Z,52.4490
2023-06-19T02:14:03.218Z,52.4550
2023-06-19T02:14:14.312Z,52.4860
2023-06-19T02:14:25.385Z,52.4940
2023-06-19T02:14:36.452Z,52.5010
2023-06-19T02:14:47.503Z,52.6580